createdAt,value
2022-08-29T16:00:51.637Z,2.20
2022-08-29T16:03:21.336Z,2.47
2022-08-29T16:05:51.061Z,2.45
2022-08-29T16:08:29.478Z,2.35
2022-08-29T16:10:59.718Z,2.42
2022-08-29T16:13:29.414Z,2.40
2022-08-29T16:15:59.482Z,2.45
2022-08-29T16:18:29.245Z,2.55
2022-08-29T16:20:58.987Z,2.40
2022-08-29T16:23:31.405Z,2.65
2022-08-29T16:26:01.065Z,2.63
2022-08-29T16:28:31.779Z,2.53
2022-08-29T16:31:01.591Z,2.53
2022-08-29T16:33:31.337Z,2.38
2022-08-29T16:36:01.244Z,2.58
2022-08-29T16:38:34.349Z,2.30
2022-08-29T16:41:08.705Z,3.08
2022-08-29T16:43:40.089Z,2.70
2022-08-29T16:46:11.896Z,2.55
2022-08-29T16:48:42.238Z,2.70
2022-08-29T16:51:12.441Z,2.65
2022-08-29T16:53:51.432Z,2.50
2022-08-29T16:56:22.197Z,2.30
2022-08-29T16:59:04.577Z,2.65
2022-08-29T17:01:36.305Z,2.60
2022-08-29T17:04:08.587Z,2.63
2022-08-29T17:06:38.660Z,2.83
2022-08-29T17:09:09.214Z,2.55
2022-08-29T17:11:36.646Z,3.00
2022-08-29T17:14:03.623Z,2.67
2022-08-29T17:16:33.448Z,2.22
2022-08-29T17:19:03.434Z,2.05
2022-08-29T17:21:33.267Z,2.20
2022-08-29T17:24:03.547Z,2.33
2022-08-29T17:26:36.889Z,2.38
2022-08-29T17:29:10.611Z,2.00
2022-08-29T17:31:40.486Z,2.53
2022-08-29T17:34:11.765Z,2.40
2022-08-29T17:36:44.170Z,2.22
2022-08-29T17:39:14.771Z,2.30
2022-08-29T17:41:51.518Z,1.92
2022-08-29T17:44:21.781Z,2.30
2022-08-29T17:46:51.928Z,2.55
2022-08-29T17:49:21.850Z,2.70
2022-08-29T17:51:56.129Z,2.50
2022-08-29T17:54:27.220Z,2.22
2022-08-29T17:57:02.456Z,2.47
2022-08-29T17:59:34.668Z,2.13
2022-08-29T18:02:05.216Z,2.22
2022-08-29T18:04:35.140Z,2.30
2022-08-29T18:07:05.311Z,2.28
2022-08-29T18:09:35.040Z,2.50
2022-08-29T18:12:08.600Z,2.25
2022-08-29T18:14:38.282Z,2.17
2022-08-29T18:17:08.085Z,2.30
2022-08-29T18:19:38.147Z,2.47
2022-08-29T18:22:08.251Z,2.65
2022-08-29T18:24:37.969Z,2.90
2022-08-29T18:27:10.378Z,2.10
2022-08-29T18:29:40.078Z,2.45
2022-08-29T18:32:11.146Z,2.80
2022-08-29T18:34:40.908Z,2.78
2022-08-29T18:37:10.589Z,3.13
2022-08-29T18:39:40.300Z,2.88
2022-08-29T18:42:30.616Z,3.17
2022-08-29T18:45:02.442Z,2.75
2022-08-29T18:47:32.124Z,2.97
2022-08-29T18:50:14.302Z,3.60
2022-08-29T18:52:45.608Z,2.95
2022-08-29T18:55:16.073Z,2.75
2022-08-29T18:57:48.891Z,2.88
2022-08-29T19:00:20.275Z,2.95
2022-08-29T19:02:50.097Z,3.35
2022-08-29T19:05:20.193Z,2.80
2022-08-29T19:07:50.061Z,2.80
2022-08-29T19:10:20.010Z,2.65
2022-08-29T19:12:52.647Z,3.35
2022-08-29T19:15:24.391Z,2.75
2022-08-29T19:17:54.525Z,2.67
2022-08-29T19:20:39.808Z,3.10
2022-08-29T19:23:10.443Z,2.70
2022-08-29T19:25:41.236Z,2.50
2022-08-29T19:28:14.163Z,2.72
2022-08-29T19:30:45.241Z,2.97
2022-08-29T19:33:17.853Z,2.50
2022-08-29T19:35:49.579Z,2.47
2022-08-29T19:38:20.901Z,2.55
2022-08-29T19:40:56.443Z,2.78
2022-08-29T19:43:32.363Z,2.72
2022-08-29T19:46:03.995Z,2.45
2022-08-29T19:48:33.951Z,2.70
2022-08-29T19:51:04.855Z,2.35
2022-08-29T19:53:34.534Z,2.80
2022-08-29T19:56:07.385Z,2.58
2022-08-29T19:58:42.828Z,2.90
2022-08-29T20:01:13.502Z,3.00
2022-08-29T20:03:44.600Z,2.72
2022-08-29T20:06:14.397Z,2.72
2022-08-29T20:08:46.113Z,2.75
2022-08-29T20:11:19.040Z,2.80
2022-08-29T20:13:52.063Z,2.88
2022-08-29T20:16:24.646Z,2.53
2022-08-29T20:18:55.029Z,2.30
2022-08-29T20:21:25.492Z,2.55
2022-08-29T20:23:58.311Z,2.60
2022-08-29T20:26:31.423Z,2.83
2022-08-29T20:29:06.886Z,2.70
2022-08-29T20:31:36.812Z,2.90
2022-08-29T20:34:07.277Z,2.88
2022-08-29T20:36:49.645Z,2.67
2022-08-29T20:39:21.945Z,2.50
2022-08-29T20:41:53.699Z,2.42
2022-08-29T20:44:32.985Z,2.47
2022-08-29T20:47:04.136Z,2.50
2022-08-29T20:49:34.093Z,2.33
2022-08-29T20:52:06.724Z,2.20
2022-08-29T20:54:38.240Z,2.75
2022-08-29T20:57:10.199Z,2.28
2022-08-29T20:59:45.571Z,1.98
2022-08-29T21:02:15.778Z,2.40
2022-08-29T21:04:58.021Z,2.40
2022-08-29T21:07:28.409Z,2.03
2022-08-29T21:09:58.125Z,2.20
2022-08-29T21:12:29.621Z,2.20
2022-08-29T21:15:01.863Z,2.42
2022-08-29T21:17:31.625Z,2.55
2022-08-29T21:20:01.574Z,2.72
2022-08-29T21:22:31.330Z,2.58
2022-08-29T21:25:01.118Z,2.40
2022-08-29T21:27:31.084Z,2.72
2022-08-29T21:30:03.397Z,2.53
2022-08-29T21:32:35.300Z,2.50
2022-08-29T21:35:05.023Z,2.50
2022-08-29T21:37:34.698Z,2.90
2022-08-29T21:40:06.303Z,2.90
2022-08-29T21:42:36.422Z,2.65
2022-08-29T21:45:09.802Z,2.50
2022-08-29T21:47:40.188Z,2.60
2022-08-29T21:50:11.038Z,3.00
2022-08-29T21:52:40.700Z,2.50
2022-08-29T21:55:11.727Z,2.50
2022-08-29T21:57:59.370Z,2.28
2022-08-29T22:00:33.933Z,1.90
2022-08-29T22:03:06.185Z,2.00
2022-08-29T22:05:36.049Z,2.17
2022-08-29T22:08:10.457Z,2.08
2022-08-29T22:10:44.839Z,2.17
2022-08-29T22:13:14.571Z,2.10
2022-08-29T22:15:59.535Z,2.78
2022-08-29T22:18:29.761Z,2.22
2022-08-29T22:21:02.456Z,2.45
2022-08-29T22:23:32.360Z,2.22
2022-08-29T22:26:02.064Z,2.30
2022-08-29T22:28:31.827Z,2.13
2022-08-29T22:31:04.476Z,2.17
2022-08-29T22:33:34.425Z,2.45
2022-08-29T22:36:04.214Z,2.50
2022-08-29T22:38:34.105Z,2.40
2022-08-29T22:41:03.926Z,2.17
2022-08-29T22:43:33.610Z,2.47
2022-08-29T22:46:10.659Z,2.22
2022-08-29T22:48:41.175Z,2.78
2022-08-29T22:51:20.744Z,2.17
2022-08-29T22:54:03.633Z,2.20
2022-08-29T22:56:34.255Z,1.95
2022-08-29T22:59:04.232Z,2.40
2022-08-29T23:01:38.535Z,2.20
2022-08-29T23:04:08.508Z,2.35
2022-08-29T23:06:38.349Z,2.13
2022-08-29T23:09:08.430Z,2.00
2022-08-29T23:11:38.231Z,2.13
2022-08-29T23:14:08.444Z,2.15
2022-08-29T23:16:45.086Z,2.30
2022-08-29T23:19:16.178Z,2.13
2022-08-29T23:21:46.672Z,2.05
2022-08-29T23:24:16.653Z,2.40
2022-08-29T23:26:46.380Z,2.10
2022-08-29T23:29:16.249Z,2.10
2022-08-29T23:31:48.903Z,1.77
2022-08-29T23:34:18.830Z,2.00
2022-08-29T23:36:48.585Z,2.35
2022-08-29T23:39:18.230Z,1.75
2022-08-29T23:41:47.975Z,2.03
2022-08-29T23:44:18.025Z,2.10
2022-08-29T23:46:50.281Z,1.98
2022-08-29T23:49:19.974Z,1.80
2022-08-29T23:51:49.734Z,2.10
2022-08-29T23:54:19.593Z,2.20
2022-08-29T23:56:49.302Z,2.00
2022-08-29T23:59:31.337Z,2.17
